Aeroporto :
LOGIN :

Iscrizione | Disclaimer

   EN    FR    IT 

 










Sommario :    VFR   VFR Marginale   IFR   IFR Intensivo   IFR Molto Intensivo
Visibilità : 
Base nubi : 
>= 8 km
>= 3000ft
5 / 8 km
1000 / 3000 ft
1500m / 5 km
500 / 1000 ft
800 / 1500m
200 / 500 ft
< 800m
< 200 ft
Simboli :   Temporali  Nebbia  Neve Forte  Precipitazioni Forti  Vento > 20 kt
SIGMETs :   Varie  Temporali  Ghiacco  Turbolenza  Onda orograficha  Ceneri Vulcaniche






- Altitudine del aeroporto : 0 ft


ENLA - Ula Platform

ULTIMO METAR :
  • 260350Z AUTO 19002G13KT 9999NDV FEW086/// OVC098/// 10/10 Q1031 W///S3

METARs OBSOLETI :
  • 260320Z AUTO 21003G13KT 9999NDV FEW098/// BKN190/// 10/10 Q1031 W///S3
  • 260250Z AUTO VRB04KT 9999NDV SCT180/// SCT200/// BKN220/// 10/10 Q1030 W///S3
  • 260220Z AUTO VRB06KT 9999NDV BKN140/// 10/10 Q1030 W///S3
  • 260150Z AUTO VRB06G16KT 9999NDV BKN140/// 11/10 Q1031 W///S3
  • 260120Z AUTO VRB06KT 9999NDV BKN150/// 11/10 Q1031 W///S3

TAF N/A



MetMap, La meteo Aeronautica in un colpo d'occhio ! - Copyright ORBIFLY Dicembre 2007 - Disclaimer

ORBIFLY MET'MAP TEAM :

Programmazione e sviluppo : Alexandra Zaïnal
Concezione : Baudouin d'Aumeries
Aiuto per la programmazione : Marc-Olivier Méhu
Supporto tecnico e logistico : Manuel Goepfert
Aiuto per la traduzione : Arnaldo La Scala

Contatto : metmap@orbifly.com




FONTI E CREDITI :

   NOAA